Time;durP1;ratioP1;P1;durP2;ratioP2;P2;SDS_P1;SDS_P2;PMS_P1;PMS_P2;Temp;Humidity;BMP_temperature;BMP_pressure;BME280_temperature;BME280_humidity;BME280_pressure;Samples;Min_cycle;Max_cycle;Signal;HPM_P1;HPM_P2
2023/10/08 00:00:53;;;;;;;0.77;0.77;;;13.70;99.90;;;;;;5013008;28;20081;-86
2023/10/08 00:03:22;;;;;;;0.60;0.60;;;13.70;99.90;;;;;;5012923;28;20073;-83
2023/10/08 00:05:51;;;;;;;0.75;0.70;;;13.70;99.90;;;;;;5012346;28;20132;-86
2023/10/08 00:08:17;;;;;;;1.48;1.10;;;13.70;99.90;;;;;;4996265;28;20368;-86
2023/10/08 00:10:44;;;;;;;1.05;0.80;;;13.70;99.90;;;;;;5013346;28;20062;-84
2023/10/08 00:13:15;;;;;;;1.00;0.93;;;13.70;99.90;;;;;;5012584;28;20540;-85
2023/10/08 00:15:51;;;;;;;1.63;0.85;;;13.70;99.90;;;;;;5013864;28;20092;-81
2023/10/08 00:18:22;;;;;;;1.17;0.65;;;13.60;99.90;;;;;;5012634;28;20557;-84
2023/10/08 00:20:55;;;;;;;0.40;0.40;;;13.50;99.90;;;;;;5013403;28;20046;-84
2023/10/08 00:23:25;;;;;;;0.30;0.30;;;13.60;99.90;;;;;;5012977;28;20124;-84
2023/10/08 00:25:55;;;;;;;0.88;0.50;;;13.50;99.90;;;;;;5012661;28;20049;-83
2023/10/08 00:28:21;;;;;;;0.55;0.50;;;13.50;99.90;;;;;;5012342;28;20153;-82
2023/10/08 00:30:48;;;;;;;0.98;0.47;;;13.40;99.90;;;;;;5012330;28;20053;-84
2023/10/08 00:33:14;;;;;;;1.50;0.43;;;13.40;99.90;;;;;;5012578;28;20054;-85
2023/10/08 00:35:41;;;;;;;0.55;0.47;;;13.40;99.90;;;;;;5012803;28;20050;-84
2023/10/08 00:38:20;;;;;;;1.20;0.65;;;13.40;99.90;;;;;;5011389;28;20133;-82
2023/10/08 00:40:49;;;;;;;0.45;0.45;;;13.50;99.90;;;;;;5012989;28;20068;-84
2023/10/08 00:43:35;;;;;;;0.40;0.40;;;13.50;99.90;;;;;;5012753;28;20045;-85
2023/10/08 00:46:06;;;;;;;0.50;0.50;;;13.50;99.90;;;;;;5011451;28;20096;-83
2023/10/08 00:48:36;;;;;;;0.75;0.60;;;13.50;99.90;;;;;;5015134;28;20495;-85
2023/10/08 00:53:52;;;;;;;2.58;0.75;;;13.60;99.90;;;;;;5016477;28;20536;-84
2023/10/08 00:56:19;;;;;;;1.08;0.73;;;13.60;99.90;;;;;;5016545;28;20062;-85
2023/10/08 00:58:52;;;;;;;0.50;0.50;;;13.60;99.90;;;;;;5016240;28;20065;-85
2023/10/08 01:01:21;;;;;;;2.03;0.73;;;13.60;99.90;;;;;;5016249;28;20085;-85
2023/10/08 01:03:49;;;;;;;1.30;0.63;;;13.60;99.90;;;;;;5016125;28;20046;-84
2023/10/08 01:06:18;;;;;;;0.85;0.70;;;13.60;99.90;;;;;;5016091;28;20089;-86
2023/10/08 01:08:51;;;;;;;2.15;0.70;;;13.70;99.90;;;;;;5015228;28;20473;-83
2023/10/08 01:11:33;;;;;;;0.70;0.70;;;13.70;99.90;;;;;;5016242;28;20083;-85
2023/10/08 01:13:59;;;;;;;1.75;0.80;;;13.70;99.90;;;;;;5016338;28;20120;-85
2023/10/08 01:16:28;;;;;;;0.82;0.70;;;13.60;99.90;;;;;;5015855;28;20530;-86
2023/10/08 01:18:54;;;;;;;1.92;0.80;;;13.60;99.90;;;;;;5016236;28;20046;-85
2023/10/08 01:21:33;;;;;;;1.95;0.80;;;13.70;99.90;;;;;;5015840;28;20046;-83
2023/10/08 01:24:02;;;;;;;0.60;0.60;;;13.70;99.90;;;;;;5016056;28;20049;-84
2023/10/08 01:26:31;;;;;;;0.80;0.60;;;13.70;99.90;;;;;;5015768;28;20085;-84
2023/10/08 01:29:02;;;;;;;1.35;0.90;;;13.70;99.90;;;;;;5015128;28;20478;-87
2023/10/08 01:31:28;;;;;;;1.17;0.75;;;13.70;99.90;;;;;;5015759;28;20046;-86
2023/10/08 01:33:56;;;;;;;1.10;0.70;;;13.70;99.90;;;;;;5015692;28;20047;-83
2023/10/08 01:36:25;;;;;;;1.95;0.90;;;13.70;99.90;;;;;;5016088;28;20045;-85
2023/10/08 01:38:51;;;;;;;1.67;0.95;;;13.80;99.90;;;;;;5015537;28;20080;-84
2023/10/08 01:41:20;;;;;;;1.77;0.77;;;13.70;99.90;;;;;;5015249;28;20050;-85
2023/10/08 01:43:46;;;;;;;1.55;1.00;;;13.70;99.90;;;;;;5015469;28;20046;-83
2023/10/08 01:46:12;;;;;;;1.08;0.80;;;13.80;99.90;;;;;;5015755;28;20053;-85
2023/10/08 01:48:44;;;;;;;1.35;0.90;;;13.70;99.90;;;;;;5014892;28;20088;-84
2023/10/08 01:51:11;;;;;;;2.80;1.00;;;13.80;99.90;;;;;;5014988;28;20489;-85
2023/10/08 01:53:41;;;;;;;1.08;0.73;;;13.70;99.90;;;;;;5015575;28;20050;-83
2023/10/08 01:56:06;;;;;;;1.70;1.00;;;13.80;99.90;;;;;;5015088;28;20145;-85
2023/10/08 01:58:33;;;;;;;0.80;0.80;;;13.80;99.90;;;;;;5013829;28;20088;-83
2023/10/08 02:01:00;;;;;;;1.98;1.00;;;13.80;99.90;;;;;;5015481;28;20079;-83
2023/10/08 02:03:27;;;;;;;1.30;0.77;;;13.90;99.90;;;;;;5015456;28;20056;-84
2023/10/08 02:05:53;;;;;;;2.47;0.90;;;13.90;99.90;;;;;;5014869;28;20478;-84
2023/10/08 02:08:20;;;;;;;3.17;1.00;;;13.90;99.90;;;;;;5014949;28;20046;-83
2023/10/08 02:10:49;;;;;;;1.00;0.98;;;13.90;99.90;;;;;;5014775;28;20528;-85
2023/10/08 02:13:16;;;;;;;0.75;0.75;;;13.80;99.90;;;;;;5014828;28;20050;-83
2023/10/08 02:15:44;;;;;;;1.08;0.95;;;13.80;99.90;;;;;;5014777;28;20057;-84
2023/10/08 02:18:10;;;;;;;0.80;0.80;;;13.70;99.90;;;;;;5014851;28;20049;-82
2023/10/08 02:20:36;;;;;;;1.10;0.80;;;13.70;99.90;;;;;;5015150;28;20058;-83
2023/10/08 02:23:02;;;;;;;1.55;1.45;;;13.70;99.90;;;;;;5013865;28;20131;-84
2023/10/08 02:25:28;;;;;;;1.02;0.82;;;13.80;99.90;;;;;;5014769;28;20041;-85
2023/10/08 02:27:53;;;;;;;1.35;1.20;;;13.80;99.90;;;;;;5013573;28;20058;-84
2023/10/08 02:30:19;;;;;;;1.98;0.80;;;13.80;99.90;;;;;;5014896;28;20100;-83
2023/10/08 02:32:46;;;;;;;0.98;0.90;;;13.80;99.90;;;;;;5013747;28;20049;-85
2023/10/08 02:35:12;;;;;;;0.88;0.88;;;13.90;99.90;;;;;;5015022;28;20073;-84
2023/10/08 02:37:39;;;;;;;1.42;1.30;;;13.90;99.90;;;;;;5014419;28;20045;-82
2023/10/08 02:40:19;;;;;;;2.38;1.30;;;13.90;99.90;;;;;;5014229;28;20084;-85
2023/10/08 02:42:48;;;;;;;1.35;1.23;;;13.90;99.90;;;;;;5015006;28;20046;-84
2023/10/08 02:45:14;;;;;;;1.90;1.23;;;13.90;99.90;;;;;;5014286;28;20046;-83
2023/10/08 02:47:45;;;;;;;1.50;1.00;;;14.00;99.90;;;;;;5014282;28;20086;-83
2023/10/08 02:50:11;;;;;;;1.50;1.33;;;14.00;99.90;;;;;;5014020;28;20050;-84
2023/10/08 02:52:37;;;;;;;2.33;1.10;;;14.00;99.90;;;;;;5014187;28;20048;-83
2023/10/08 02:55:04;;;;;;;2.05;1.33;;;14.10;99.90;;;;;;5013919;28;20045;-85
2023/10/08 02:57:31;;;;;;;3.47;1.30;;;14.10;99.90;;;;;;5012589;28;20471;-83
2023/10/08 02:59:57;;;;;;;2.15;1.33;;;14.10;99.90;;;;;;5014286;28;20041;-85
2023/10/08 03:02:23;;;;;;;1.05;0.95;;;14.20;99.90;;;;;;5014181;28;20088;-83
2023/10/08 03:04:52;;;;;;;1.40;1.25;;;14.10;99.90;;;;;;5014062;28;20460;-83
2023/10/08 03:07:21;;;;;;;2.20;1.20;;;14.10;99.90;;;;;;5013140;28;20053;-84
2023/10/08 03:10:03;;;;;;;4.60;1.50;;;14.10;99.90;;;;;;5013609;28;20133;-83
2023/10/08 03:12:31;;;;;;;2.33;1.10;;;14.10;99.90;;;;;;5013829;28;20501;-85
2023/10/08 03:17:51;;;;;;;2.35;1.20;;;14.10;99.90;;;;;;4992638;28;20585;-84
2023/10/08 03:23:05;;;;;;;1.60;1.05;;;14.10;99.90;;;;;;5013507;28;20046;-84
2023/10/08 03:25:30;;;;;;;1.77;1.30;;;14.10;99.90;;;;;;5013451;28;20079;-85
2023/10/08 03:27:59;;;;;;;1.17;0.90;;;14.10;99.90;;;;;;5013662;28;20046;-83
2023/10/08 03:30:26;;;;;;;1.30;1.00;;;14.10;99.90;;;;;;5013375;28;20076;-84
2023/10/08 03:32:55;;;;;;;3.42;1.42;;;14.20;99.90;;;;;;5013480;28;20049;-82
2023/10/08 03:35:27;;;;;;;1.13;1.02;;;14.10;99.90;;;;;;5013948;28;20046;-84
2023/10/08 03:37:54;;;;;;;1.73;1.00;;;14.10;99.90;;;;;;5013884;28;20093;-85
2023/10/08 03:40:42;;;;;;;4.18;1.75;;;14.10;99.90;;;;;;5013393;28;20483;-83
2023/10/08 03:43:15;;;;;;;1.80;1.30;;;14.10;99.90;;;;;;5013220;28;20046;-85
2023/10/08 03:45:53;;;;;;;1.95;1.15;;;14.10;99.90;;;;;;5013664;28;20050;-85
2023/10/08 03:48:22;;;;;;;3.67;1.42;;;14.10;99.90;;;;;;5013041;28;20124;-82
2023/10/08 03:50:56;;;;;;;1.58;1.17;;;14.00;99.90;;;;;;5011950;28;20523;-84
2023/10/08 03:53:22;;;;;;;3.08;1.23;;;14.00;99.90;;;;;;5012867;28;20521;-83
2023/10/08 03:55:51;;;;;;;1.42;1.05;;;14.00;99.90;;;;;;5012071;28;20111;-84
2023/10/08 03:58:41;;;;;;;1.40;1.10;;;13.90;99.90;;;;;;5012260;28;20125;-82
2023/10/08 04:01:10;;;;;;;2.72;1.10;;;14.10;99.90;;;;;;5012689;28;20053;-83
2023/10/08 04:03:57;;;;;;;2.40;1.35;;;14.10;99.90;;;;;;5012940;28;20133;-83
2023/10/08 04:06:38;;;;;;;1.52;1.30;;;14.00;99.90;;;;;;5013367;28;20506;-83
2023/10/08 04:11:35;;;;;;;2.90;1.30;;;14.10;99.90;;;;;;5013432;28;20046;-81
2023/10/08 04:14:04;;;;;;;2.03;1.05;;;14.10;99.90;;;;;;5013495;28;20045;-85
2023/10/08 04:16:36;;;;;;;1.25;1.00;;;14.00;99.90;;;;;;5013287;28;20120;-84
2023/10/08 04:19:03;;;;;;;1.70;0.90;;;14.10;99.90;;;;;;5012465;28;20424;-84
2023/10/08 04:21:29;;;;;;;1.35;1.10;;;14.10;99.90;;;;;;5011537;28;20104;-82
2023/10/08 04:23:57;;;;;;;3.08;1.10;;;14.10;99.90;;;;;;5016355;28;20124;-80
2023/10/08 04:26:25;;;;;;;1.80;1.02;;;14.10;99.90;;;;;;5017825;28;20068;-84
2023/10/08 04:28:57;;;;;;;2.03;1.30;;;14.00;99.90;;;;;;5017068;28;20045;-80
2023/10/08 04:31:28;;;;;;;1.95;1.27;;;13.90;99.90;;;;;;5016827;28;20180;-81
2023/10/08 04:33:54;;;;;;;3.80;1.40;;;13.90;99.90;;;;;;5017075;28;20126;-83
2023/10/08 04:36:20;;;;;;;2.17;1.30;;;13.80;99.90;;;;;;5016646;28;20104;-86
2023/10/08 04:38:54;;;;;;;1.65;1.33;;;13.80;99.90;;;;;;5016302;28;20556;-82
2023/10/08 04:41:22;;;;;;;2.05;1.30;;;13.70;99.90;;;;;;5016600;28;20088;-84
2023/10/08 04:43:49;;;;;;;2.55;1.40;;;13.80;99.90;;;;;;5016376;28;20168;-84
2023/10/08 04:49:05;;;;;;;1.88;1.02;;;13.70;99.90;;;;;;5016688;28;20049;-84
2023/10/08 04:51:40;;;;;;;2.08;1.17;;;13.70;99.90;;;;;;5016605;28;20042;-83
2023/10/08 04:54:05;;;;;;;1.42;1.25;;;13.80;99.90;;;;;;5015770;28;20050;-83
2023/10/08 04:56:33;;;;;;;3.60;1.73;;;13.80;99.90;;;;;;5015067;28;20501;-82
2023/10/08 04:58:58;;;;;;;5.32;1.73;;;13.80;99.90;;;;;;5016224;28;20058;-82
2023/10/08 05:01:40;;;;;;;3.53;1.50;;;13.80;99.90;;;;;;5016062;28;20048;-82
2023/10/08 05:19:48;;;;;;;3.08;1.20;;;13.80;99.90;;;;;;5014946;28;20053;-82
2023/10/08 05:27:57;;;;;;;1.85;1.30;;;13.90;99.90;;;;;;4974184;28;20514;-82
2023/10/08 05:38:21;;;;;;;5.22;1.58;;;13.90;99.90;;;;;;5014543;28;20050;-82
2023/10/08 05:46:39;;;;;;;2.83;1.20;;;13.90;99.90;;;;;;5015517;28;20139;-82
2023/10/08 05:51:59;;;;;;;2.75;1.70;;;13.90;99.90;;;;;;5015423;28;20041;-84
2023/10/08 06:03:00;;;;;;;3.13;1.42;;;13.80;99.90;;;;;;4993396;28;20054;-85
2023/10/08 06:05:32;;;;;;;2.70;1.50;;;13.70;99.90;;;;;;5026751;28;20053;-80
2023/10/08 06:08:11;;;;;;;1.90;1.50;;;13.70;99.90;;;;;;5030891;28;20050;-81
2023/10/08 06:13:29;;;;;;;1.55;1.17;;;13.70;99.90;;;;;;5015489;28;20489;-83
2023/10/08 06:18:25;;;;;;;1.73;1.35;;;13.80;99.90;;;;;;5014825;28;20060;-85
2023/10/08 06:20:55;;;;;;;3.10;1.30;;;13.80;99.90;;;;;;5013835;28;20502;-85
2023/10/08 06:23:25;;;;;;;1.30;1.20;;;13.80;99.90;;;;;;5014222;28;20056;-84
2023/10/08 06:25:58;;;;;;;3.60;1.40;;;13.80;99.90;;;;;;5014555;28;20050;-81
2023/10/08 06:28:25;;;;;;;1.35;1.25;;;13.80;99.90;;;;;;5013743;28;20096;-81
2023/10/08 06:30:53;;;;;;;2.40;1.10;;;13.90;99.90;;;;;;5014396;28;20046;-82
2023/10/08 06:33:20;;;;;;;4.85;1.88;;;13.80;99.90;;;;;;5014946;28;20104;-80
2023/10/08 06:36:02;;;;;;;2.33;1.13;;;13.90;99.90;;;;;;5013169;28;20054;-80
2023/10/08 06:38:32;;;;;;;2.47;1.42;;;13.80;99.90;;;;;;5014200;28;20085;-83
2023/10/08 06:41:24;;;;;;;3.17;1.40;;;13.90;99.90;;;;;;5014069;28;20117;-82
2023/10/08 06:43:51;;;;;;;1.58;1.10;;;14.00;99.90;;;;;;5014053;28;20046;-80
2023/10/08 06:46:21;;;;;;;1.15;0.93;;;14.00;99.90;;;;;;5012074;28;20089;-81
2023/10/08 06:48:49;;;;;;;5.93;1.70;;;14.10;99.90;;;;;;5014288;28;20054;-82
2023/10/08 06:51:17;;;;;;;2.90;1.40;;;14.00;99.90;;;;;;5014080;28;20490;-81
2023/10/08 06:53:45;;;;;;;4.40;1.65;;;14.10;99.90;;;;;;5014181;28;20124;-81
2023/10/08 06:56:15;;;;;;;5.65;1.83;;;14.10;99.90;;;;;;5014208;28;20053;-81
2023/10/08 06:58:53;;;;;;;4.22;1.77;;;14.20;99.90;;;;;;5013655;28;20050;-82
2023/10/08 07:01:24;;;;;;;1.80;1.30;;;14.30;99.90;;;;;;5012909;28;20488;-81
2023/10/08 07:04:03;;;;;;;4.10;1.23;;;14.40;99.90;;;;;;5013711;28;20046;-82
2023/10/08 07:06:33;;;;;;;4.03;1.65;;;14.40;99.90;;;;;;5012752;28;20477;-82
2023/10/08 07:09:04;;;;;;;5.47;1.83;;;14.40;99.90;;;;;;5013382;28;20491;-81
2023/10/08 07:11:34;;;;;;;2.42;1.40;;;14.40;99.90;;;;;;5013661;28;20054;-81
2023/10/08 07:14:01;;;;;;;2.17;1.30;;;14.40;99.90;;;;;;5012549;28;20064;-82
2023/10/08 07:16:28;;;;;;;3.55;1.35;;;14.40;99.90;;;;;;5013534;28;20053;-84
2023/10/08 07:19:01;;;;;;;4.97;1.73;;;14.50;99.90;;;;;;5012612;28;20104;-82
2023/10/08 07:21:38;;;;;;;;;;;14.60;99.90;;;;;;5013607;28;20045;-81
2023/10/08 07:24:09;;;;;;;5.53;1.63;;;14.70;99.90;;;;;;5013430;28;19921;-82
2023/10/08 07:26:39;;;;;;;1.50;1.15;;;14.90;99.90;;;;;;5013250;28;20496;-82
2023/10/08 07:29:08;;;;;;;3.67;1.35;;;15.00;99.90;;;;;;5012881;28;20084;-82
2023/10/08 07:31:36;;;;;;;2.30;1.50;;;15.10;99.90;;;;;;5013799;28;20038;-82
2023/10/08 07:34:18;;;;;;;5.85;2.63;;;15.20;99.90;;;;;;5013773;28;20056;-82
2023/10/08 07:36:47;;;;;;;;;;;15.20;99.90;;;;;;5013653;28;20049;-81
2023/10/08 07:41:49;;;;;;;4.75;1.67;;;15.10;99.90;;;;;;5012395;28;20083;-77
2023/10/08 07:44:15;;;;;;;2.15;1.50;;;15.00;99.90;;;;;;5012745;28;20479;-83
2023/10/08 07:46:41;;;;;;;4.57;1.60;;;15.00;99.90;;;;;;5012940;28;20042;-84
2023/10/08 07:49:07;;;;;;;5.13;1.95;;;14.90;99.90;;;;;;5012961;28;20538;-83
2023/10/08 07:51:34;;;;;;;4.03;1.73;;;15.00;99.90;;;;;;5013537;28;20088;-83
2023/10/08 07:54:00;;;;;;;8.02;1.88;;;15.00;99.90;;;;;;5012714;28;20398;-82
2023/10/08 07:56:26;;;;;;;6.55;2.13;;;15.10;99.90;;;;;;5012759;28;20095;-80
2023/10/08 07:58:55;;;;;;;3.85;2.35;;;15.10;99.90;;;;;;5012666;28;20125;-82
2023/10/08 08:01:24;;;;;;;5.60;1.98;;;15.10;99.90;;;;;;5012155;28;20073;-81
2023/10/08 08:03:51;;;;;;;7.20;2.20;;;15.10;99.90;;;;;;5013159;28;20049;-83
2023/10/08 08:06:17;;;;;;;4.70;2.17;;;15.10;99.90;;;;;;5012690;28;20111;-82
2023/10/08 08:08:44;;;;;;;6.80;2.38;;;15.00;99.90;;;;;;5012713;28;20050;-81
2023/10/08 08:11:13;;;;;;;5.57;1.70;;;15.00;99.90;;;;;;5011700;28;20050;-81
2023/10/08 08:13:42;;;;;;;4.32;2.50;;;15.00;99.90;;;;;;5011567;28;20057;-82
2023/10/08 08:16:18;;;;;;;4.50;1.98;;;15.00;99.90;;;;;;5012615;28;20092;-82
2023/10/08 08:18:48;;;;;;;4.00;1.90;;;15.00;99.90;;;;;;5012821;28;20045;-81
2023/10/08 08:21:15;;;;;;;4.53;2.03;;;15.00;99.90;;;;;;5012533;28;20072;-82
2023/10/08 08:23:50;;;;;;;3.92;1.70;;;15.10;99.90;;;;;;5012510;28;20100;-82
2023/10/08 08:26:29;;;;;;;4.05;1.67;;;15.20;99.90;;;;;;5012148;28;20489;-83
2023/10/08 08:29:01;;;;;;;4.47;1.92;;;15.30;99.90;;;;;;4995365;28;20088;-84
2023/10/08 08:31:31;;;;;;;2.70;1.45;;;15.40;99.90;;;;;;5013285;28;20072;-85
2023/10/08 08:34:02;;;;;;;4.35;1.70;;;15.50;99.90;;;;;;5012799;28;20063;-82
2023/10/08 08:36:30;;;;;;;4.40;1.88;;;15.60;99.90;;;;;;5012927;28;20068;-81
2023/10/08 08:38:56;;;;;;;5.05;1.90;;;15.70;99.90;;;;;;5012368;28;20053;-82
2023/10/08 08:41:23;;;;;;;5.30;1.70;;;15.70;99.90;;;;;;5011487;28;20042;-83
2023/10/08 08:43:58;;;;;;;4.35;1.63;;;15.90;99.90;;;;;;5012361;28;20451;-79
2023/10/08 08:46:32;;;;;;;5.82;1.88;;;15.90;99.90;;;;;;5011407;28;20395;-80
2023/10/08 08:49:07;;;;;;;2.97;2.10;;;15.80;99.90;;;;;;5011394;28;20046;-82
2023/10/08 08:51:35;;;;;;;3.63;1.88;;;15.80;99.90;;;;;;5011185;28;20049;-81
2023/10/08 08:54:06;;;;;;;5.05;1.63;;;15.80;99.90;;;;;;5011877;28;20422;-81
2023/10/08 08:56:36;;;;;;;5.65;2.78;;;15.90;99.90;;;;;;5012263;28;20048;-81
2023/10/08 08:59:04;;;;;;;3.17;1.65;;;15.90;99.90;;;;;;5011683;28;20058;-81
2023/10/08 09:01:32;;;;;;;2.70;1.75;;;15.90;99.90;;;;;;5011023;28;20050;-81
2023/10/08 09:04:04;;;;;;;7.40;2.38;;;16.00;99.90;;;;;;5012197;28;20115;-81
2023/10/08 09:06:32;;;;;;;5.95;2.15;;;16.10;99.90;;;;;;5012152;28;20050;-80
2023/10/08 09:11:51;;;;;;;3.50;1.60;;;16.20;99.90;;;;;;5014970;28;20060;-81
2023/10/08 09:14:25;;;;;;;5.97;2.28;;;16.30;99.90;;;;;;5015880;28;20091;-80
2023/10/08 09:16:51;;;;;;;4.80;2.00;;;16.30;99.90;;;;;;5015941;28;20487;-80
2023/10/08 09:19:22;;;;;;;5.10;2.03;;;16.30;99.90;;;;;;5014682;28;20054;-85
2023/10/08 09:22:05;;;;;;;4.72;2.22;;;16.30;99.90;;;;;;5015343;28;20386;-82
2023/10/08 09:24:38;;;;;;;4.97;2.03;;;16.30;99.90;;;;;;4998444;28;20046;-83
2023/10/08 09:27:14;;;;;;;5.05;2.30;;;16.50;99.90;;;;;;5015643;28;20479;-80
2023/10/08 09:29:43;;;;;;;3.60;1.95;;;16.60;99.90;;;;;;5015891;28;20128;-82
2023/10/08 09:32:23;;;;;;;3.50;2.42;;;16.70;99.90;;;;;;5015461;28;20471;-82
2023/10/08 09:34:50;;;;;;;7.60;1.90;;;16.80;99.90;;;;;;5016092;28;20085;-82
2023/10/08 09:37:17;;;;;;;3.85;1.88;;;16.90;99.90;;;;;;5015902;28;20053;-83
2023/10/08 09:39:45;;;;;;;5.82;2.00;;;17.10;99.90;;;;;;5014503;28;20089;-82
2023/10/08 09:42:13;;;;;;;3.75;2.13;;;17.60;99.90;;;;;;5014747;28;20459;-82
2023/10/08 09:44:40;;;;;;;5.75;2.38;;;18.40;99.90;;;;;;5015776;28;20054;-81
2023/10/08 09:47:08;;;;;;;9.77;2.67;;;18.70;99.90;;;;;;5015264;28;20085;-82
2023/10/08 09:49:42;;;;;;;7.15;2.08;;;18.20;99.90;;;;;;5015288;28;20050;-81
2023/10/08 09:52:08;;;;;;;10.40;2.35;;;17.90;99.90;;;;;;5015241;28;20045;-82
2023/10/08 09:54:48;;;;;;;5.00;2.22;;;17.70;99.90;;;;;;5015170;28;20042;-79
2023/10/08 09:57:19;;;;;;;5.63;2.00;;;17.60;99.90;;;;;;5015140;28;20096;-82
2023/10/08 09:59:46;;;;;;;5.03;2.30;;;17.60;99.90;;;;;;5015012;28;20478;-80
2023/10/08 10:02:12;;;;;;;6.57;1.80;;;17.40;99.90;;;;;;5015026;28;20046;-81
2023/10/08 10:04:44;;;;;;;5.65;1.95;;;17.50;99.90;;;;;;5015636;28;20049;-82
2023/10/08 10:07:12;;;;;;;4.63;1.75;;;17.50;99.90;;;;;;5015306;28;20050;-82
2023/10/08 10:09:39;;;;;;;5.40;2.05;;;17.80;99.90;;;;;;5013711;28;20115;-83
2023/10/08 10:12:09;;;;;;;5.40;1.90;;;18.10;99.90;;;;;;5015196;28;20053;-82
2023/10/08 10:14:42;;;;;;;4.93;2.05;;;18.60;99.90;;;;;;5014492;28;20053;-81
2023/10/08 10:17:28;;;;;;;5.97;2.13;;;19.00;99.90;;;;;;5015064;28;20050;-81
2023/10/08 10:19:55;;;;;;;5.57;2.30;;;20.00;99.90;;;;;;5013432;28;20535;-81
2023/10/08 10:22:32;;;;;;;4.45;1.50;;;21.20;99.90;;;;;;5014298;28;20046;-81
2023/10/08 10:25:00;;;;;;;5.85;2.03;;;21.70;98.30;;;;;;5014035;28;20060;-82
2023/10/08 10:27:26;;;;;;;10.35;2.17;;;21.80;99.70;;;;;;5014023;28;20395;-82
2023/10/08 10:30:07;;;;;;;4.55;2.20;;;21.90;99.10;;;;;;5014557;28;20057;-80
2023/10/08 10:32:34;;;;;;;5.43;2.20;;;20.80;98.90;;;;;;5014465;28;20053;-82
2023/10/08 10:35:03;;;;;;;5.80;2.35;;;19.90;99.60;;;;;;5013049;28;20060;-81
2023/10/08 10:37:40;;;;;;;4.60;2.40;;;19.20;99.90;;;;;;5014152;28;20057;-82
2023/10/08 10:40:12;;;;;;;7.00;1.75;;;18.80;99.90;;;;;;5013622;28;20477;-81
2023/10/08 10:42:42;;;;;;;5.13;1.90;;;18.50;99.90;;;;;;5012927;28;20177;-82
2023/10/08 10:48:10;;;;;;;5.68;2.10;;;18.10;99.90;;;;;;5014082;28;20053;-79
2023/10/08 10:50:48;;;;;;;7.30;2.53;;;18.00;99.90;;;;;;5014036;28;20116;-81
2023/10/08 10:53:17;;;;;;;4.13;1.88;;;17.90;99.90;;;;;;5013600;28;20185;-81
2023/10/08 10:55:58;;;;;;;5.57;2.00;;;17.90;99.90;;;;;;5014026;28;20088;-81
2023/10/08 10:58:25;;;;;;;5.82;2.13;;;17.80;99.90;;;;;;5012655;28;20053;-79
2023/10/08 11:01:07;;;;;;;5.30;2.35;;;17.70;99.90;;;;;;5013988;28;20081;-79
2023/10/08 11:03:34;;;;;;;7.57;2.30;;;17.80;99.90;;;;;;5013834;28;20456;-79
2023/10/08 11:06:05;;;;;;;6.65;2.45;;;17.70;99.90;;;;;;5013820;28;20045;-82
2023/10/08 11:08:35;;;;;;;9.73;2.22;;;17.80;99.90;;;;;;5013838;28;20390;-81
2023/10/08 11:11:05;;;;;;;6.03;1.98;;;17.80;99.90;;;;;;4996751;28;20049;-82
2023/10/08 11:13:40;;;;;;;6.47;1.98;;;17.90;99.90;;;;;;5014110;28;20097;-80
2023/10/08 11:16:08;;;;;;;4.88;2.17;;;18.00;99.90;;;;;;5013475;28;20057;-83
2023/10/08 11:18:34;;;;;;;3.60;1.80;;;18.10;99.90;;;;;;5013429;28;20173;-79
2023/10/08 11:21:22;;;;;;;5.45;2.17;;;18.20;99.90;;;;;;5012360;28;20057;-82
2023/10/08 11:23:55;;;;;;;4.75;2.13;;;18.20;99.20;;;;;;5013515;28;20068;-81
2023/10/08 11:26:31;;;;;;;;;;;18.30;99.50;;;;;;4997320;28;20045;-80
2023/10/08 11:29:00;;;;;;;6.78;2.03;;;18.20;99.00;;;;;;5012268;28;19969;-81
2023/10/08 11:31:28;;;;;;;4.60;2.15;;;18.30;99.70;;;;;;5011951;28;20112;-82
2023/10/08 11:33:59;;;;;;;4.75;2.00;;;18.40;99.40;;;;;;5012733;28;20061;-81
2023/10/08 11:36:33;;;;;;;7.97;2.00;;;18.40;99.30;;;;;;5013646;28;20523;-82
2023/10/08 11:39:11;;;;;;;5.25;2.00;;;18.40;99.60;;;;;;5013234;28;20057;-81
2023/10/08 11:41:52;;;;;;;6.82;1.77;;;18.30;99.10;;;;;;5011933;28;20136;-81
2023/10/08 11:44:19;;;;;;;3.30;1.70;;;18.30;99.30;;;;;;5013520;28;20092;-82
2023/10/08 11:46:47;;;;;;;6.88;2.25;;;18.30;99.20;;;;;;5013098;28;20049;-82
2023/10/08 11:49:17;;;;;;;5.63;2.28;;;18.40;99.20;;;;;;5012877;28;20038;-81
2023/10/08 11:51:45;;;;;;;5.97;2.30;;;18.30;99.20;;;;;;5012321;28;20049;-83
2023/10/08 11:54:14;;;;;;;5.95;2.20;;;18.30;99.50;;;;;;5012960;28;20115;-80
2023/10/08 11:56:41;;;;;;;4.03;1.95;;;18.30;99.40;;;;;;5011761;28;20053;-81
2023/10/08 11:59:09;;;;;;;4.47;2.28;;;18.30;99.20;;;;;;5013196;28;20069;-81
2023/10/08 12:01:37;;;;;;;3.88;1.60;;;18.40;99.50;;;;;;5012686;28;20049;-83
2023/10/08 12:04:04;;;;;;;4.97;2.00;;;18.40;99.30;;;;;;5012178;28;20053;-82
2023/10/08 12:06:30;;;;;;;5.43;1.85;;;18.40;99.40;;;;;;5012923;28;20128;-80
2023/10/08 12:08:58;;;;;;;6.63;2.38;;;18.40;99.60;;;;;;5012867;28;20054;-83
2023/10/08 12:11:33;;;;;;;3.05;1.85;;;18.40;99.00;;;;;;5013195;28;20142;-79
2023/10/08 12:13:59;;;;;;;4.85;1.73;;;18.30;98.70;;;;;;5012816;28;20108;-82
2023/10/08 12:16:29;;;;;;;5.20;2.00;;;18.30;98.80;;;;;;5012336;28;20117;-83
2023/10/08 12:18:58;;;;;;;5.40;2.10;;;18.20;99.00;;;;;;5012579;28;20061;-83
2023/10/08 12:21:31;;;;;;;5.75;1.98;;;18.20;99.50;;;;;;5011235;28;20418;-80
2023/10/08 12:23:58;;;;;;;7.20;2.33;;;18.30;99.00;;;;;;5012910;28;20053;-81
2023/10/08 12:26:24;;;;;;;4.20;2.95;;;18.20;98.90;;;;;;5011582;28;20481;-83
2023/10/08 12:28:50;;;;;;;5.93;1.83;;;18.10;99.00;;;;;;5011238;28;20135;-82
2023/10/08 12:31:24;;;;;;;4.05;1.90;;;18.10;99.00;;;;;;5012441;28;20073;-78
2023/10/08 12:34:00;;;;;;;7.40;2.58;;;18.10;99.10;;;;;;5013710;28;20069;-79
2023/10/08 12:36:32;;;;;;;3.38;1.90;;;18.10;98.90;;;;;;5012489;28;20050;-81
2023/10/08 12:38:58;;;;;;;3.92;1.63;;;18.20;99.00;;;;;;5012488;28;20054;-84
2023/10/08 12:41:26;;;;;;;5.00;2.00;;;18.00;99.00;;;;;;5011725;28;20062;-80
2023/10/08 12:43:53;;;;;;;3.47;2.10;;;18.00;99.10;;;;;;5013836;28;20096;-80
2023/10/08 12:46:26;;;;;;;5.63;2.00;;;17.90;99.20;;;;;;5015440;28;20052;-82
2023/10/08 12:48:53;;;;;;;4.65;1.85;;;17.90;99.50;;;;;;5017147;28;20196;-83
2023/10/08 12:51:25;;;;;;;4.03;2.03;;;17.90;99.80;;;;;;5016259;28;20092;-83
2023/10/08 12:54:28;;;;;;;6.75;2.58;;;18.00;99.60;;;;;;5016250;28;20053;-83
2023/10/08 12:56:48;;;;;;;5.50;2.10;;;17.90;99.50;;;;;;5013802;28;20081;-82
2023/10/08 12:59:21;;;;;;;4.65;2.08;;;18.00;99.50;;;;;;5016235;28;20084;-83
2023/10/08 13:01:51;;;;;;;2.95;1.60;;;17.80;99.00;;;;;;5016145;28;20064;-81
2023/10/08 13:04:34;;;;;;;7.10;1.92;;;17.70;99.10;;;;;;5014890;28;20420;-81
2023/10/08 13:07:02;;;;;;;5.32;2.53;;;17.70;99.20;;;;;;5016097;28;20054;-82
2023/10/08 13:09:30;;;;;;;5.07;1.80;;;17.80;99.40;;;;;;5016385;28;20391;-84
2023/10/08 13:11:59;;;;;;;5.65;2.10;;;18.00;99.90;;;;;;5015671;28;20444;-79
2023/10/08 13:14:25;;;;;;;6.82;2.58;;;18.20;99.80;;;;;;5015879;28;20143;-79
2023/10/08 13:16:53;;;;;;;6.30;2.20;;;18.30;99.50;;;;;;4998177;28;20034;-81
2023/10/08 13:19:20;;;;;;;6.25;1.88;;;18.50;99.10;;;;;;5015854;28;20486;-82
2023/10/08 13:21:45;;;;;;;5.85;2.15;;;18.60;98.70;;;;;;5015951;28;20470;-84
2023/10/08 13:24:12;;;;;;;8.85;2.15;;;18.70;98.90;;;;;;5015675;28;20042;-82
2023/10/08 13:26:38;;;;;;;6.45;1.88;;;18.90;98.50;;;;;;5015504;28;20621;-85
2023/10/08 13:29:05;;;;;;;6.43;2.15;;;18.90;98.50;;;;;;5015473;28;20467;-78
2023/10/08 13:31:36;;;;;;;4.13;2.03;;;19.00;98.40;;;;;;5016041;28;20494;-82
2023/10/08 13:34:03;;;;;;;3.83;2.05;;;18.90;98.40;;;;;;5014544;28;20049;-82
2023/10/08 13:36:30;;;;;;;4.95;1.90;;;18.90;98.70;;;;;;5015240;28;20465;-82
2023/10/08 13:38:56;;;;;;;6.22;2.20;;;18.90;99.20;;;;;;5015523;28;20046;-83
2023/10/08 13:41:22;;;;;;;9.45;2.25;;;18.90;99.40;;;;;;5014574;28;20052;-81
2023/10/08 13:43:51;;;;;;;6.13;1.98;;;18.90;99.10;;;;;;5015245;28;20471;-82
2023/10/08 13:46:25;;;;;;;5.18;2.00;;;18.70;98.90;;;;;;5015196;28;20171;-84
2023/10/08 13:48:51;;;;;;;5.78;2.47;;;18.60;99.20;;;;;;5015401;28;20046;-85
2023/10/08 13:51:24;;;;;;;6.30;2.13;;;18.50;99.20;;;;;;5015300;28;20232;-81
2023/10/08 13:53:52;;;;;;;;;;;18.20;99.30;;;;;;5014670;28;20080;-81
2023/10/08 13:56:24;;;;;;;7.28;2.72;;;17.90;98.50;;;;;;5015268;28;19941;-82
2023/10/08 13:58:51;;;;;;;6.97;2.28;;;17.80;99.90;;;;;;5015285;28;20145;-82
2023/10/08 14:01:20;;;;;;;5.28;1.85;;;17.80;99.70;;;;;;5014919;28;20112;-80
2023/10/08 14:03:47;;;;;;;8.55;2.38;;;17.80;99.50;;;;;;5015184;28;20085;-81
2023/10/08 14:06:14;;;;;;;5.43;1.95;;;17.80;99.90;;;;;;5014723;28;20501;-82
2023/10/08 14:08:39;;;;;;;6.55;1.90;;;17.90;99.90;;;;;;5015754;28;20455;-81
2023/10/08 14:11:05;;;;;;;5.20;2.33;;;17.90;99.90;;;;;;5015205;28;20046;-83
2023/10/08 14:13:32;;;;;;;5.32;1.88;;;18.00;99.90;;;;;;5014253;28;20450;-83
2023/10/08 14:16:08;;;;;;;4.68;2.25;;;18.00;99.90;;;;;;5014522;28;20058;-84